Map

Track Data

SID SEASON NUMBER BASIN SUBBASIN NAME ISO_TIME NATURE LAT LON WMO_WIND WMO_PRES WMO_AGENCY TRACK_TYPE DIST2LAND LANDFALL IFLAG USA_AGENCY USA_ATCF_ID USA_LAT USA_LON USA_RECORD USA_STATUS USA_WIND USA_PRES USA_SSHS USA_R34_NE USA_R34_SE USA_R34_SW USA_R34_NW USA_R50_NE USA_R50_SE USA_R50_SW USA_R50_NW USA_R64_NE USA_R64_SE USA_R64_SW USA_R64_NW USA_POCI USA_ROCI USA_RMW USA_EYE TOKYO_LAT TOKYO_LON TOKYO_GRADE TOKYO_WIND TOKYO_PRES TOKYO_R50_DIR TOKYO_R50_LONG TOKYO_R50_SHORT TOKYO_R30_DIR TOKYO_R30_LONG TOKYO_R30_SHORT TOKYO_LAND CMA_LAT CMA_LON CMA_CAT CMA_WIND CMA_PRES HKO_LAT HKO_LON HKO_CAT HKO_WIND HKO_PRES NEWDELHI_LAT NEWDELHI_LON NEWDELHI_GRADE NEWDELHI_WIND NEWDELHI_PRES NEWDELHI_CI NEWDELHI_DP NEWDELHI_POCI REUNION_LAT REUNION_LON REUNION_TYPE REUNION_WIND REUNION_PRES REUNION_TNUM REUNION_CI REUNION_RMW REUNION_R34_NE REUNION_R34_SE REUNION_R34_SW REUNION_R34_NW REUNION_R50_NE REUNION_R50_SE REUNION_R50_SW REUNION_R50_NW REUNION_R64_NE REUNION_R64_SE REUNION_R64_SW REUNION_R64_NW BOM_LAT BOM_LON BOM_TYPE BOM_WIND BOM_PRES BOM_TNUM BOM_CI BOM_RMW BOM_R34_NE BOM_R34_SE BOM_R34_SW BOM_R34_NW BOM_R50_NE BOM_R50_SE BOM_R50_SW BOM_R50_NW BOM_R64_NE BOM_R64_SE BOM_R64_SW BOM_R64_NW BOM_ROCI BOM_POCI BOM_EYE BOM_POS_METHOD BOM_PRES_METHOD NADI_LAT NADI_LON NADI_CAT NADI_WIND NADI_PRES WELLINGTON_LAT WELLINGTON_LON WELLINGTON_WIND WELLINGTON_PRES DS824_LAT DS824_LON DS824_STAGE DS824_WIND DS824_PRES TD9636_LAT TD9636_LON TD9636_STAGE TD9636_WIND TD9636_PRES TD9635_LAT TD9635_LON TD9635_WIND TD9635_PRES TD9635_ROCI NEUMANN_LAT NEUMANN_LON NEUMANN_CLASS NEUMANN_WIND NEUMANN_PRES MLC_LAT MLC_LON MLC_CLASS MLC_WIND MLC_PRES USA_GUST BOM_GUST BOM_GUST_PER REUNION_GUST REUNION_GUST_PER USA_SEAHGT USA_SEARAD_NE USA_SEARAD_SE USA_SEARAD_SW USA_SEARAD_NW STORM_SPEED STORM_DIR
1915245N16148 1915 31 WP MM NOT_NAMED 1915-09-02 09:00:00 NR 16.4000 147.800 main 2072 2072 __________O___ -1 16.4000 147.800 7 20 277
1915245N16148 1915 31 WP MM NOT_NAMED 1915-09-02 12:00:00 NR 16.5251 146.780 main 2083 2083 __________P___ -1 16.5251 146.780 7 19 277
1915245N16148 1915 31 WP MM NOT_NAMED 1915-09-02 15:00:00 NR 16.6380 145.787 main 2096 2075 __________P___ -1 16.6380 145.787 7 19 276
1915245N16148 1915 31 WP MM NOT_NAMED 1915-09-02 18:00:00 NR 16.7317 144.850 main 2075 2027 __________P___ -1 16.7317 144.850 7 17 275
1915245N16148 1915 31 WP MM NOT_NAMED 1915-09-02 21:00:00 NR 16.8000 144.000 main 2027 1984 __________O___ -1 16.8000 144.000 7 15 274
1915245N16148 1915 31 WP MM NOT_NAMED 1915-09-03 00:00:00 NR 16.8417 143.253 main 1984 1914 __________P___ -1 16.8417 143.253 7 14 273
1915245N16148 1915 31 WP MM NOT_NAMED 1915-09-03 03:00:00 NR 16.8745 142.581 main 1914 1852 __________P___ -1 16.8745 142.581 7 13 274
1915245N16148 1915 31 WP MM NOT_NAMED 1915-09-03 06:00:00 NR 16.9201 141.944 main 1841 1782 __________P___ -1 16.9201 141.944 7 12 276
1915245N16148 1915 31 WP MM NOT_NAMED 1915-09-03 09:00:00 NR 17.0000 141.300 main 1782 1714 __________O___ -1 17.0000 141.300 7 13 279
1915245N16148 1915 31 WP MM NOT_NAMED 1915-09-03 12:00:00 NR 17.1309 140.569 main 1714 1650 __________P___ -1 17.1309 140.569 7 14 282
1915245N16148 1915 31 WP MM NOT_NAMED 1915-09-03 15:00:00 NR 17.2976 139.828 main 1640 1577 __________P___ -1 17.2976 139.828 7 15 284
1915245N16148 1915 31 WP MM NOT_NAMED 1915-09-03 18:00:00 NR 17.4903 139.097 main 1577 1516 __________P___ -1 17.4903 139.097 7 14 286
1915245N16148 1915 31 WP MM NOT_NAMED 1915-09-03 21:00:00 NR 17.7000 138.400 main 1516 1466 __________O___ -1 17.7000 138.400 7 13 287
1915245N16148 1915 31 WP MM NOT_NAMED 1915-09-04 00:00:00 NR 17.8894 137.751 main 1466 1418 __________P___ -1 17.8894 137.751 7 13 288
1915245N16148 1915 31 WP MM NOT_NAMED 1915-09-04 03:00:00 NR 18.0964 137.139 main 1409 1372 __________P___ -1 18.0964 137.139 7 12 291
1915245N16148 1915 31 WP MM NOT_NAMED 1915-09-04 06:00:00 NR 18.3302 136.557 main 1372 1333 __________P___ -1 18.3302 136.557 7 12 295
1915245N16148 1915 31 WP MM NOT_NAMED 1915-09-04 09:00:00 NR 18.6000 136.000 main 1333 1298 __________O___ -1 18.6000 136.000 7 12 299
1915245N16148 1915 31 WP MM NOT_NAMED 1915-09-04 12:00:00 NR 18.9343 135.414 main 1298 1266 __________P___ -1 18.9343 135.414 7 13 303
1915245N16148 1915 31 WP MM NOT_NAMED 1915-09-04 15:00:00 NR 19.3000 134.854 main 1271 1240 __________P___ -1 19.3000 134.854 7 13 306
1915245N16148 1915 31 WP MM NOT_NAMED 1915-09-04 18:00:00 NR 19.6657 134.342 main 1237 1219 __________P___ -1 19.6657 134.342 7 11 308
1915245N16148 1915 31 WP MM NOT_NAMED 1915-09-04 21:00:00 NR 20.0000 133.900 main 1219 1202 __________O___ -1 20.0000 133.900 7 10 308
1915245N16148 1915 31 WP MM NOT_NAMED 1915-09-05 00:00:00 NR 20.2479 133.544 main 1192 1174 __________P___ -1 20.2479 133.544 7 8 308
1915245N16148 1915 31 WP MM NOT_NAMED 1915-09-05 03:00:00 NR 20.4640 133.258 main 1176 1147 __________P___ -1 20.4640 133.258 7 7 311
1915245N16148 1915 31 WP MM NOT_NAMED 1915-09-05 06:00:00 NR 20.6731 133.019 main 1150 1131 __________P___ -1 20.6731 133.019 7 6 315
1915245N16148 1915 31 WP MM NOT_NAMED 1915-09-05 09:00:00 NR 20.9000 132.800 main 1134 1110 __________O___ -1 20.9000 132.800 4 7 319
1915245N16148 1915 31 WP MM NOT_NAMED 1915-09-05 12:00:00 NR 21.1783 132.552 main 1110 1072 __________P___ -1 21.1783 132.552 4 7 322
1915245N16148 1915 31 WP MM NOT_NAMED 1915-09-05 15:00:00 NR 21.4774 132.320 main 1072 1036 __________P___ -1 21.4774 132.320 4 7 326
1915245N16148 1915 31 WP MM NOT_NAMED 1915-09-05 18:00:00 NR 21.7877 132.102 main 1036 1001 __________P___ -1 21.7877 132.102 4 7 328
1915245N16148 1915 31 WP MM NOT_NAMED 1915-09-05 21:00:00 NR 22.1000 131.900 main 1001 965 __________O___ -1 22.1000 131.900 4 7 328
1915245N16148 1915 31 WP MM NOT_NAMED 1915-09-06 00:00:00 NR 22.3918 131.694 main 965 930 __________P___ -1 22.3918 131.694 4 7 328
1915245N16148 1915 31 WP MM NOT_NAMED 1915-09-06 03:00:00 NR 22.6850 131.505 main 930 895 __________P___ -1 22.6850 131.505 4 7 331
1915245N16148 1915 31 WP MM NOT_NAMED 1915-09-06 06:00:00 NR 22.9856 131.338 main 895 861 __________P___ -1 22.9856 131.338 4 7 335
1915245N16148 1915 31 WP MM NOT_NAMED 1915-09-06 09:00:00 NR 23.3000 131.200 main 861 827 __________O___ -1 23.3000 131.200 4 7 342
1915245N16148 1915 31 WP MM NOT_NAMED 1915-09-06 12:00:00 NR 23.6395 131.104 main 827 782 __________P___ -1 23.6395 131.104 4 7 348
1915245N16148 1915 31 WP MM NOT_NAMED 1915-09-06 15:00:00 NR 23.9923 131.034 main 782 748 __________P___ -1 23.9923 131.034 4 7 351
1915245N16148 1915 31 WP MM NOT_NAMED 1915-09-06 18:00:00 NR 24.3489 130.973 main 748 703 __________P___ -1 24.3489 130.973 4 7 350
1915245N16148 1915 31 WP MM NOT_NAMED 1915-09-06 21:00:00 NR 24.7000 130.900 main 703 669 __________O___ -1 24.7000 130.900 4 7 345
1915245N16148 1915 31 WP MM NOT_NAMED 1915-09-07 00:00:00 NR 25.0241 130.777 main 669 636 __________P___ -1 25.0241 130.777 4 7 340
1915245N16148 1915 31 WP MM NOT_NAMED 1915-09-07 03:00:00 NR 25.3426 130.643 main 636 602 __________P___ -1 25.3426 130.643 4 7 339
1915245N16148 1915 31 WP MM NOT_NAMED 1915-09-07 06:00:00 NR 25.6648 130.512 main 592 558 __________P___ -1 25.6648 130.512 4 7 341
1915245N16148 1915 31 WP MM NOT_NAMED 1915-09-07 09:00:00 NR 26.0000 130.400 main 558 537 __________O___ -1 26.0000 130.400 4 6 338
1915245N16148 1915 31 WP MM NOT_NAMED 1915-09-07 12:00:00 NR 26.1743 130.282 main 537 515 __________P___ -1 26.1743 130.282 4 4 334
1915245N16148 1915 31 WP MM NOT_NAMED 1915-09-07 15:00:00 NR 26.3909 130.192 main 515 471 __________P___ -1 26.3909 130.192 4 6 350
1915245N16148 1915 31 WP MM NOT_NAMED 1915-09-07 18:00:00 NR 26.7869 130.156 main 471 404 __________P___ -1 26.7869 130.156 4 11 1
1915245N16148 1915 31 WP MM NOT_NAMED 1915-09-07 21:00:00 NR 27.5000 130.200 main 393 268 __________O___ -1 27.5000 130.200 4 20 9
1915245N16148 1915 31 WP MM NOT_NAMED 1915-09-08 00:00:00 NR 28.7077 130.500 main 257 100 __________P___ -1 28.7077 130.500 4 28 12
1915245N16148 1915 31 WP MM NOT_NAMED 1915-09-08 03:00:00 NR 30.2293 130.867 main 91 0 __________P___ -1 30.2293 130.867 4 33 10
1915245N16148 1915 31 WP MM NOT_NAMED 1915-09-08 06:00:00 NR 31.9106 131.153 main 0 0 __________P___ -1 31.9106 131.153 4 34 5
1915245N16148 1915 31 WP MM NOT_NAMED 1915-09-08 09:00:00 NR 33.6000 131.200 main 9 0 __________O___ -1 33.6000 131.200 4 33 354
1915245N16148 1915 31 WP MM NOT_NAMED 1915-09-08 12:00:00 NR 35.2042 130.725 main 101 44 __________P___ -1 35.2042 130.725 4 33 342
1915245N16148 1915 31 WP MM NOT_NAMED 1915-09-08 15:00:00 NR 36.7680 129.973 main 45 20 __________P___ -1 36.7680 129.973 4 33 337
1915245N16148 1915 31 WP MM NOT_NAMED 1915-09-08 18:00:00 NR 38.1969 129.105 main 41 28 __________P___ -1 38.1969 129.105 4 29 333
1915245N16148 1915 31 WP MM NOT_NAMED 1915-09-08 21:00:00 NR 39.4000 128.300 main 54 0 __________O___ -1 39.4000 128.300 4 23 334
1915245N16148 1915 31 WP MM NOT_NAMED 1915-09-09 00:00:00 NR 40.2277 127.809 main 0 0 __________P___ -1 40.2277 127.809 4 16 335
1915245N16148 1915 31 WP MM NOT_NAMED 1915-09-09 03:00:00 NR 40.8457 127.436 main 0 0 __________P___ -1 40.8457 127.436 4 13 337
1915245N16148 1915 31 WP MM NOT_NAMED 1915-09-09 06:00:00 NR 41.3911 127.147 main 0 0 __________P___ -1 41.3911 127.147 4 12 341
1915245N16148 1915 31 WP MM NOT_NAMED 1915-09-09 09:00:00 NR 42.0000 126.900 main 0 0 __________O___ -1 42.0000 126.900 4 16 343
1915245N16148 1915 31 WP MM NOT_NAMED 1915-09-09 12:00:00 NR 42.8799 126.529 main 0 0 __________P___ -1 42.8799 126.529 4 19 344
1915245N16148 1915 31 WP MM NOT_NAMED 1915-09-09 15:00:00 NR 43.8398 126.198 main 0 0 __________P___ -1 43.8398 126.198 4 20 348
1915245N16148 1915 31 WP MM NOT_NAMED 1915-09-09 18:00:00 NR 44.8297 125.966 main 0 0 __________P___ -1 44.8297 125.966 4 20 354
1915245N16148 1915 31 WP MM NOT_NAMED 1915-09-09 21:00:00 NR 45.8000 125.900 main 0 0 __________O___ -1 45.8000 125.900 4 19 1
1915245N16148 1915 31 WP MM NOT_NAMED 1915-09-10 00:00:00 NR 46.6930 126.015 main 0 0 __________P___ -1 46.6930 126.015 4 18 9
1915245N16148 1915 31 WP MM NOT_NAMED 1915-09-10 03:00:00 NR 47.5569 126.319 main 0 0 __________P___ -1 47.5569 126.319 4 18 17
1915245N16148 1915 31 WP MM NOT_NAMED 1915-09-10 06:00:00 NR 48.3925 126.789 main 0 0 __________P___ -1 48.3925 126.789 4 18 24
1915245N16148 1915 31 WP MM NOT_NAMED 1915-09-10 09:00:00 NR 49.2000 127.400 main 0 0 __________O___ -1 49.2000 127.400 7 18 29
1915245N16148 1915 31 WP MM NOT_NAMED 1915-09-10 12:00:00 NR 49.9804 128.127 main 0 0 __________P___ -1 49.9804 128.127 7 18 33
1915245N16148 1915 31 WP MM NOT_NAMED 1915-09-10 15:00:00 NR 50.7374 128.950 main 0 0 __________P___ -1 50.7374 128.950 7 18 36
1915245N16148 1915 31 WP MM NOT_NAMED 1915-09-10 18:00:00 NR 51.4756 129.848 main 0 0 __________P___ -1 51.4756 129.848 7 19 38
1915245N16148 1915 31 WP MM NOT_NAMED 1915-09-10 21:00:00 NR 52.2000 130.800 main 0 __________O___ -1 52.2000 130.800 7 19 39

Digital Typhoon Data and Search

About IBTrACS Database

This database is a web-friendly format of International Best Track Archive for Climate Stewardship (IBTrACS), a global best track data archive curated by NOAA dating back to 1842.

Updated: 2021-12-06